Time;durP1;ratioP1;P1;durP2;ratioP2;P2;SDS_P1;SDS_P2;PMS_P1;PMS_P2;Temp;Humidity;BMP_temperature;BMP_pressure;BME280_temperature;BME280_humidity;BME280_pressure;Samples;Min_cycle;Max_cycle;Signal;HPM_P1;HPM_P2
2021/04/10 00:01:09;;;;;;;21.53;20.13;;;8.20;99.90;;;;;;5023546;28;20487;-73
2021/04/10 00:03:35;;;;;;;21.23;19.93;;;8.20;99.90;;;;;;5021127;28;20540;-75
2021/04/10 00:06:02;;;;;;;21.40;20.10;;;8.20;99.90;;;;;;5023091;28;20478;-74
2021/04/10 00:08:28;;;;;;;20.97;19.67;;;8.30;99.90;;;;;;5021255;28;20811;-73
2021/04/10 00:10:57;;;;;;;21.20;19.90;;;8.30;99.90;;;;;;5020416;28;20478;-75
2021/04/10 00:13:23;;;;;;;19.80;18.60;;;8.30;99.90;;;;;;5023521;28;20466;-74
2021/04/10 00:15:50;;;;;;;20.30;19.10;;;8.30;99.90;;;;;;5019922;28;20467;-74
2021/04/10 00:18:17;;;;;;;20.00;18.80;;;8.20;99.90;;;;;;5024735;28;20524;-74
2021/04/10 00:20:46;;;;;;;21.23;19.90;;;8.20;99.90;;;;;;5020116;28;20490;-74
2021/04/10 00:23:12;;;;;;;20.20;19.00;;;8.10;99.90;;;;;;5019278;28;20462;-74
2021/04/10 00:25:39;;;;;;;20.80;19.50;;;8.00;99.90;;;;;;5024468;28;20966;-73
2021/04/10 00:28:07;;;;;;;20.30;19.10;;;7.90;99.90;;;;;;5019810;28;20472;-73
2021/04/10 00:30:34;;;;;;;20.27;19.00;;;7.90;99.90;;;;;;5017048;28;21008;-74
2021/04/10 00:33:02;;;;;;;22.40;20.93;;;7.90;99.90;;;;;;5018104;28;20503;-75
2021/04/10 00:35:29;;;;;;;20.37;19.17;;;8.00;99.90;;;;;;5022905;28;20468;-73
2021/04/10 00:37:56;;;;;;;20.17;18.97;;;8.10;99.90;;;;;;5019661;28;20465;-72
2021/04/10 00:40:23;;;;;;;51.60;32.00;;;8.10;99.90;;;;;;5016179;28;20486;-74
2021/04/10 00:42:50;;;;;;;19.70;18.50;;;8.10;99.90;;;;;;5020892;28;20455;-74
2021/04/10 00:45:18;;;;;;;19.70;18.50;;;8.10;99.90;;;;;;5017031;28;20969;-74
2021/04/10 00:47:45;;;;;;;19.67;18.50;;;8.10;99.90;;;;;;5025316;28;20461;-75
2021/04/10 00:50:13;;;;;;;19.43;18.30;;;8.10;99.90;;;;;;5018128;28;20463;-74
2021/04/10 00:52:42;;;;;;;19.33;18.20;;;8.00;99.90;;;;;;5015450;28;20468;-73
2021/04/10 00:55:11;;;;;;;19.70;18.57;;;7.90;99.90;;;;;;5019371;28;20503;-74
2021/04/10 00:57:39;;;;;;;20.63;19.53;;;8.10;99.90;;;;;;5022871;28;20465;-75
2021/04/10 01:00:07;;;;;;;18.87;17.77;;;8.00;99.90;;;;;;5024337;28;20473;-75
2021/04/10 01:02:35;;;;;;;19.00;17.90;;;7.90;99.90;;;;;;5017914;28;20464;-75
2021/04/10 01:05:03;;;;;;;19.77;18.57;;;7.90;99.90;;;;;;5022379;28;20465;-73
2021/04/10 01:07:29;;;;;;;19.70;18.50;;;7.90;99.90;;;;;;5019193;28;20472;-74
2021/04/10 01:09:58;;;;;;;19.20;18.10;;;7.90;99.90;;;;;;5020186;28;20463;-74
2021/04/10 01:12:37;;;;;;;19.13;18.03;;;7.90;99.90;;;;;;5016427;28;20468;-75
2021/04/10 01:15:12;;;;;;;20.13;18.90;;;7.90;99.90;;;;;;5023565;28;20469;-73
2021/04/10 01:17:47;;;;;;;19.57;18.37;;;7.90;99.90;;;;;;5021251;28;20468;-75
2021/04/10 01:20:32;;;;;;;18.93;17.83;;;7.90;99.90;;;;;;5017942;28;21032;-75
2021/04/10 01:23:28;;;;;;;18.97;17.87;;;8.00;99.90;;;;;;5016474;28;20459;-74
2021/04/10 01:26:09;;;;;;;19.40;18.30;;;8.00;99.90;;;;;;5023102;28;20471;-75
2021/04/10 01:28:51;;;;;;;19.17;18.07;;;8.00;99.90;;;;;;5025423;28;20981;-75
2021/04/10 01:31:21;;;;;;;18.53;17.43;;;8.00;99.90;;;;;;5022978;28;20459;-76
2021/04/10 01:33:50;;;;;;;19.37;18.27;;;8.00;99.90;;;;;;5022217;28;20848;-74
2021/04/10 01:36:23;;;;;;;20.00;18.80;;;7.90;99.90;;;;;;5025157;28;20834;-75
2021/04/10 01:38:51;;;;;;;19.90;18.70;;;7.90;99.90;;;;;;5027126;28;20547;-74
2021/04/10 01:41:19;;;;;;;20.07;18.87;;;7.90;99.90;;;;;;5025864;28;20974;-74
2021/04/10 01:43:48;;;;;;;19.90;18.80;;;7.90;99.90;;;;;;5025422;28;20479;-74
2021/04/10 01:46:16;;;;;;;18.90;17.80;;;7.90;99.90;;;;;;5023897;28;20536;-75
2021/04/10 01:48:45;;;;;;;19.67;18.50;;;7.80;99.90;;;;;;5023711;28;20961;-73
2021/04/10 01:51:13;;;;;;;19.23;18.13;;;7.70;99.90;;;;;;5029369;28;20522;-74
2021/04/10 01:53:41;;;;;;;19.77;18.57;;;7.60;99.90;;;;;;5027960;28;20484;-74
2021/04/10 01:56:09;;;;;;;19.40;18.30;;;7.60;99.90;;;;;;5021959;28;20462;-74
2021/04/10 01:58:37;;;;;;;19.80;18.60;;;7.50;99.90;;;;;;5022238;28;20634;-75
2021/04/10 02:01:07;;;;;;;22.03;20.73;;;7.50;99.90;;;;;;5023119;28;20842;-74
2021/04/10 02:03:34;;;;;;;19.53;18.43;;;7.50;99.90;;;;;;5025923;28;20576;-73
2021/04/10 02:06:02;;;;;;;19.87;18.67;;;7.50;99.90;;;;;;5024687;28;20656;-74
2021/04/10 02:08:29;;;;;;;19.70;18.60;;;7.40;99.90;;;;;;5026102;28;20485;-75
2021/04/10 02:10:57;;;;;;;20.13;19.03;;;7.30;99.90;;;;;;5020237;28;20491;-73
2021/04/10 02:13:24;;;;;;;21.00;19.80;;;7.20;99.90;;;;;;5022592;28;20585;-75
2021/04/10 02:15:52;;;;;;;19.73;18.53;;;7.20;99.90;;;;;;5019049;28;20499;-73
2021/04/10 02:18:21;;;;;;;19.27;18.17;;;7.10;99.90;;;;;;5027315;28;20461;-74
2021/04/10 02:20:48;;;;;;;20.20;19.00;;;7.00;99.90;;;;;;5025326;28;20492;-74
2021/04/10 02:23:15;;;;;;;19.37;18.27;;;7.00;99.90;;;;;;5021560;28;20471;-74
2021/04/10 02:25:41;;;;;;;20.43;19.23;;;6.90;99.90;;;;;;5020696;28;20953;-74
2021/04/10 02:28:08;;;;;;;20.33;19.13;;;6.80;99.90;;;;;;5023325;28;20460;-74
2021/04/10 02:30:35;;;;;;;19.90;18.70;;;6.80;99.90;;;;;;5019196;28;20516;-74
2021/04/10 02:33:05;;;;;;;20.10;18.90;;;6.70;99.90;;;;;;5018636;28;20885;-75
2021/04/10 02:35:36;;;;;;;20.50;19.30;;;6.70;99.90;;;;;;5021191;28;20457;-73
2021/04/10 02:38:05;;;;;;;20.33;19.13;;;6.60;99.90;;;;;;5024000;28;20476;-72
2021/04/10 02:40:34;;;;;;;20.60;19.40;;;6.60;99.90;;;;;;5020357;28;20490;-74
2021/04/10 02:43:02;;;;;;;20.93;19.73;;;6.60;99.90;;;;;;5021152;28;20470;-74
2021/04/10 02:45:29;;;;;;;20.20;19.00;;;6.50;99.90;;;;;;5019923;28;20465;-74
2021/04/10 02:47:58;;;;;;;19.87;18.67;;;6.50;99.90;;;;;;5015375;28;20466;-73
2021/04/10 02:50:27;;;;;;;19.80;18.60;;;6.40;99.90;;;;;;5023167;28;20800;-75
2021/04/10 02:52:57;;;;;;;19.87;18.67;;;6.40;99.90;;;;;;5020764;28;20783;-73
2021/04/10 02:55:30;;;;;;;20.33;19.13;;;6.40;99.90;;;;;;5017197;28;20453;-74
2021/04/10 02:58:02;;;;;;;20.50;19.30;;;6.40;99.90;;;;;;5020009;28;20493;-72
2021/04/10 03:00:29;;;;;;;20.67;19.47;;;6.40;99.90;;;;;;5015933;28;20473;-72
2021/04/10 03:02:57;;;;;;;20.53;19.33;;;6.40;99.90;;;;;;5024235;28;20470;-74
2021/04/10 03:05:24;;;;;;;20.13;18.93;;;6.50;99.90;;;;;;5013769;28;20471;-74
2021/04/10 03:07:53;;;;;;;19.73;18.63;;;6.50;99.90;;;;;;5026270;28;20511;-73
2021/04/10 03:10:21;;;;;;;20.40;19.20;;;6.40;99.90;;;;;;5023629;28;20464;-74
2021/04/10 03:12:48;;;;;;;20.30;19.10;;;6.40;99.90;;;;;;5021487;28;20467;-72
2021/04/10 03:15:16;;;;;;;19.70;18.60;;;6.40;99.90;;;;;;5018328;28;20818;-74
2021/04/10 03:17:44;;;;;;;20.40;19.20;;;6.30;99.90;;;;;;5024903;28;20508;-75
2021/04/10 03:20:13;;;;;;;20.40;19.20;;;6.30;99.90;;;;;;5020385;28;20466;-73
2021/04/10 03:22:43;;;;;;;20.07;18.87;;;6.30;99.90;;;;;;5020280;28;20806;-73
2021/04/10 03:25:13;;;;;;;19.80;18.63;;;6.30;99.90;;;;;;5025218;28;20848;-72
2021/04/10 03:27:42;;;;;;;21.17;19.90;;;6.30;99.90;;;;;;5022045;28;20460;-72
2021/04/10 03:30:10;;;;;;;22.67;21.27;;;6.20;99.90;;;;;;5021694;28;20491;-74
2021/04/10 03:32:37;;;;;;;20.63;19.43;;;6.20;99.90;;;;;;5022634;28;20539;-75
2021/04/10 03:35:05;;;;;;;20.80;19.60;;;6.20;99.90;;;;;;5020600;28;20460;-72
2021/04/10 03:37:32;;;;;;;20.03;18.83;;;6.20;99.90;;;;;;5022299;28;20496;-73
2021/04/10 03:39:59;;;;;;;21.27;19.97;;;6.10;99.90;;;;;;5024081;28;20460;-72
2021/04/10 03:42:36;;;;;;;21.93;20.63;;;6.10;99.90;;;;;;5021049;28;20497;-73
2021/04/10 03:45:03;;;;;;;20.43;19.23;;;6.10;99.90;;;;;;5022875;28;20473;-75
2021/04/10 03:47:29;;;;;;;20.33;19.13;;;6.00;99.90;;;;;;5023727;28;20457;-73
2021/04/10 03:49:56;;;;;;;20.97;19.70;;;5.90;99.90;;;;;;5016174;28;20471;-73
2021/04/10 03:52:22;;;;;;;21.10;19.80;;;5.80;99.90;;;;;;5025475;28;21090;-76
2021/04/10 03:54:48;;;;;;;20.77;19.57;;;5.70;99.90;;;;;;5022860;28;20810;-74
2021/04/10 03:57:16;;;;;;;20.37;19.17;;;5.60;99.90;;;;;;5019767;28;20472;-74
2021/04/10 03:59:42;;;;;;;20.27;19.07;;;5.50;99.90;;;;;;5023559;28;20469;-75
2021/04/10 04:02:10;;;;;;;20.60;19.40;;;5.50;99.90;;;;;;5024833;28;20995;-75
2021/04/10 04:04:36;;;;;;;20.07;18.87;;;5.50;99.90;;;;;;5023719;28;20467;-73
2021/04/10 04:07:03;;;;;;;19.90;18.70;;;5.60;99.90;;;;;;5016094;28;20484;-72
2021/04/10 04:09:30;;;;;;;19.63;18.53;;;5.60;99.90;;;;;;5021137;28;20508;-75
2021/04/10 04:11:57;;;;;;;19.50;18.40;;;5.60;99.90;;;;;;5022375;28;20511;-73
2021/04/10 04:14:24;;;;;;;20.30;19.10;;;5.70;99.90;;;;;;5020873;28;20461;-74
2021/04/10 04:16:50;;;;;;;20.00;18.87;;;5.70;99.90;;;;;;5017213;28;20481;-75
2021/04/10 04:19:18;;;;;;;20.37;19.17;;;5.70;99.90;;;;;;5016008;28;20465;-75
2021/04/10 04:21:45;;;;;;;20.30;19.10;;;5.70;99.90;;;;;;5018352;28;20500;-74
2021/04/10 04:24:11;;;;;;;19.80;18.70;;;5.70;99.90;;;;;;5023214;28;20464;-73
2021/04/10 04:26:39;;;;;;;19.80;18.70;;;5.80;99.90;;;;;;5027044;28;20473;-72
2021/04/10 04:29:06;;;;;;;20.40;19.30;;;5.80;99.90;;;;;;5022894;28;20492;-73
2021/04/10 04:31:32;;;;;;;20.50;19.30;;;5.90;99.90;;;;;;5018810;28;20457;-73
2021/04/10 04:33:58;;;;;;;20.20;19.10;;;5.90;99.90;;;;;;5019452;28;20544;-72
2021/04/10 04:36:26;;;;;;;19.50;18.40;;;5.90;99.90;;;;;;5023103;28;20464;-76
2021/04/10 04:38:53;;;;;;;19.70;18.60;;;5.90;99.90;;;;;;5013374;28;20463;-73
2021/04/10 04:41:20;;;;;;;19.70;18.60;;;5.90;99.90;;;;;;5022876;28;20480;-76
2021/04/10 04:43:47;;;;;;;19.40;18.30;;;6.00;99.90;;;;;;5023185;28;20868;-73
2021/04/10 04:46:13;;;;;;;19.63;18.53;;;6.00;99.90;;;;;;5022237;28;20480;-73
2021/04/10 04:48:40;;;;;;;19.10;18.00;;;6.10;99.90;;;;;;5022358;28;20807;-72
2021/04/10 04:51:08;;;;;;;19.40;18.30;;;6.10;99.90;;;;;;5021346;28;20501;-73
2021/04/10 04:53:37;;;;;;;19.33;18.23;;;6.20;99.90;;;;;;5013098;28;20990;-74
2021/04/10 04:56:03;;;;;;;19.23;18.13;;;6.20;99.90;;;;;;5022073;28;20476;-76
2021/04/10 04:58:30;;;;;;;19.53;18.43;;;6.30;99.90;;;;;;5018894;28;20809;-76
2021/04/10 05:00:57;;;;;;;19.77;18.67;;;6.30;99.90;;;;;;5013455;28;20497;-75
2021/04/10 05:03:23;;;;;;;19.70;18.60;;;6.40;99.90;;;;;;5024302;28;20556;-76
2021/04/10 05:05:50;;;;;;;19.40;18.30;;;6.40;99.90;;;;;;5021899;28;20468;-74
2021/04/10 05:08:16;;;;;;;20.43;19.33;;;6.50;99.90;;;;;;5014139;28;20897;-73
2021/04/10 05:10:43;;;;;;;18.97;17.97;;;6.60;99.90;;;;;;5020928;28;20816;-73
2021/04/10 05:13:09;;;;;;;19.10;18.10;;;6.60;99.90;;;;;;5011374;28;20542;-76
2021/04/10 05:15:36;;;;;;;19.23;18.13;;;6.60;99.90;;;;;;5019945;28;20460;-73
2021/04/10 05:18:02;;;;;;;20.50;19.40;;;6.70;99.90;;;;;;5018921;28;20505;-75
2021/04/10 05:20:28;;;;;;;19.40;18.30;;;6.70;99.90;;;;;;5012889;28;20481;-75
2021/04/10 05:22:55;;;;;;;101.80;30.00;;;6.70;99.90;;;;;;5018692;28;20528;-75
2021/04/10 05:25:23;;;;;;;24.13;21.80;;;6.80;99.90;;;;;;5013488;28;20979;-74
2021/04/10 05:27:51;;;;;;;20.70;19.50;;;6.70;99.90;;;;;;5016944;28;20514;-74
2021/04/10 05:30:19;;;;;;;20.43;19.23;;;6.60;99.90;;;;;;5015403;28;20487;-75
2021/04/10 05:32:46;;;;;;;21.00;19.70;;;6.50;99.90;;;;;;5017833;28;20900;-73
2021/04/10 05:35:14;;;;;;;20.37;19.17;;;6.40;99.90;;;;;;5024357;28;20537;-75
2021/04/10 05:37:41;;;;;;;20.33;19.20;;;6.40;99.90;;;;;;5014594;28;20473;-74
2021/04/10 05:40:09;;;;;;;20.47;19.37;;;6.50;99.90;;;;;;5013005;28;20477;-75
2021/04/10 05:42:35;;;;;;;20.30;19.20;;;6.60;99.90;;;;;;5009682;28;20489;-73
2021/04/10 05:45:04;;;;;;;19.70;18.60;;;6.60;99.90;;;;;;5012955;28;20542;-76
2021/04/10 05:47:30;;;;;;;19.37;18.27;;;6.70;99.90;;;;;;5014223;28;21026;-72
2021/04/10 05:49:57;;;;;;;19.43;18.33;;;6.80;99.90;;;;;;5016079;28;20465;-76
2021/04/10 05:52:23;;;;;;;20.90;19.70;;;6.80;99.90;;;;;;5014755;28;21001;-74
2021/04/10 05:54:49;;;;;;;20.00;18.90;;;6.90;99.90;;;;;;5011424;28;20472;-75
2021/04/10 05:57:16;;;;;;;19.57;18.47;;;6.90;99.90;;;;;;5013188;28;20734;-72
2021/04/10 05:59:42;;;;;;;19.57;18.47;;;7.00;99.90;;;;;;5013816;28;20469;-73
2021/04/10 06:02:10;;;;;;;19.53;18.43;;;7.10;99.90;;;;;;5013803;28;20507;-74
2021/04/10 06:04:36;;;;;;;20.83;19.63;;;7.10;99.90;;;;;;5014656;28;20472;-74
2021/04/10 06:07:04;;;;;;;19.47;18.37;;;7.20;99.90;;;;;;5006439;28;20476;-73
2021/04/10 06:09:30;;;;;;;19.30;18.20;;;7.30;99.90;;;;;;5014201;28;20461;-73
2021/04/10 06:11:57;;;;;;;18.83;17.83;;;7.50;99.90;;;;;;5018959;28;20970;-74
2021/04/10 06:14:23;;;;;;;18.40;17.40;;;7.50;99.90;;;;;;5021594;28;20500;-75
2021/04/10 06:16:50;;;;;;;18.70;17.70;;;7.50;99.90;;;;;;5027655;28;21004;-74
2021/04/10 06:19:18;;;;;;;19.00;18.00;;;7.60;99.90;;;;;;5018859;28;21027;-75
2021/04/10 06:21:45;;;;;;;18.97;17.90;;;7.70;99.90;;;;;;5014857;28;20546;-73
2021/04/10 06:24:13;;;;;;;20.83;19.43;;;7.70;99.90;;;;;;5021355;28;20476;-74
2021/04/10 06:26:40;;;;;;;20.60;19.40;;;7.80;99.90;;;;;;5016108;28;20476;-76
2021/04/10 06:29:07;;;;;;;19.03;17.93;;;7.90;99.90;;;;;;5017676;28;20902;-74
2021/04/10 06:31:33;;;;;;;20.13;19.00;;;8.00;99.90;;;;;;5018291;28;20475;-74
2021/04/10 06:33:59;;;;;;;19.30;18.20;;;8.00;99.90;;;;;;5020236;28;20484;-75
2021/04/10 06:36:27;;;;;;;19.23;18.13;;;8.10;99.90;;;;;;5011987;28;20459;-74
2021/04/10 06:38:54;;;;;;;18.53;17.53;;;8.10;99.90;;;;;;5022388;28;20494;-76
2021/04/10 06:41:21;;;;;;;18.83;17.83;;;8.20;99.90;;;;;;5019278;28;20486;-74
2021/04/10 06:43:47;;;;;;;19.50;18.40;;;8.20;99.90;;;;;;5025125;28;20460;-76
2021/04/10 06:46:14;;;;;;;19.40;18.30;;;8.40;99.90;;;;;;5025164;28;20461;-76
2021/04/10 06:48:42;;;;;;;20.23;19.13;;;8.50;99.90;;;;;;5025527;28;20460;-75
2021/04/10 06:51:10;;;;;;;18.67;17.57;;;8.60;99.90;;;;;;5020020;28;20497;-73
2021/04/10 06:53:42;;;;;;;18.80;17.70;;;8.70;99.90;;;;;;5015750;28;20516;-76
2021/04/10 06:56:10;;;;;;;18.37;17.37;;;8.80;99.90;;;;;;5020960;28;20497;-76
2021/04/10 06:58:44;;;;;;;17.93;16.93;;;8.90;99.90;;;;;;5020755;28;20465;-75
2021/04/10 07:01:13;;;;;;;17.57;16.60;;;8.90;99.90;;;;;;5019897;28;20492;-74
2021/04/10 07:03:40;;;;;;;17.50;16.50;;;8.80;99.90;;;;;;5009241;28;21239;-75
2021/04/10 07:06:07;;;;;;;18.00;17.00;;;8.90;99.90;;;;;;5008865;28;20970;-72
2021/04/10 07:08:34;;;;;;;16.80;15.90;;;9.20;99.90;;;;;;5010837;28;20558;-73
2021/04/10 07:11:01;;;;;;;16.30;15.50;;;9.30;99.90;;;;;;5017166;28;20946;-72
2021/04/10 07:13:28;;;;;;;16.90;16.00;;;9.50;99.90;;;;;;5009224;28;20510;-74
2021/04/10 07:15:54;;;;;;;16.43;15.63;;;9.70;99.90;;;;;;5013964;28;20444;-74
2021/04/10 07:18:27;;;;;;;16.83;16.03;;;9.90;99.90;;;;;;5015620;28;20507;-74
2021/04/10 07:21:13;;;;;;;17.20;16.30;;;10.20;99.90;;;;;;5015642;28;20962;-73
2021/04/10 07:23:48;;;;;;;19.63;18.53;;;10.10;99.90;;;;;;5014090;28;20530;-73
2021/04/10 07:26:17;;;;;;;17.97;17.07;;;10.10;99.90;;;;;;5013718;28;20525;-75
2021/04/10 07:28:43;;;;;;;17.00;16.10;;;10.20;99.90;;;;;;5012193;28;20834;-73
2021/04/10 07:31:11;;;;;;;16.30;15.50;;;10.30;99.90;;;;;;5010301;28;21340;-75
2021/04/10 07:33:39;;;;;;;17.20;16.30;;;10.40;99.90;;;;;;5011290;28;20485;-73
2021/04/10 07:36:08;;;;;;;17.30;16.40;;;10.50;99.90;;;;;;5008615;28;20469;-73
2021/04/10 07:38:37;;;;;;;17.37;16.47;;;10.70;99.90;;;;;;5007580;28;20476;-73
2021/04/10 07:41:05;;;;;;;16.50;15.70;;;10.90;99.90;;;;;;5010570;28;20512;-76
2021/04/10 07:43:37;;;;;;;19.17;18.17;;;10.90;99.90;;;;;;5015687;28;20498;-74
2021/04/10 07:46:21;;;;;;;17.57;16.67;;;11.00;99.90;;;;;;5017753;28;20469;-76
2021/04/10 07:49:06;;;;;;;17.40;16.50;;;11.20;99.90;;;;;;5020167;28;21046;-73
2021/04/10 07:51:34;;;;;;;17.60;16.70;;;11.50;99.90;;;;;;5010645;28;20465;-73
2021/04/10 07:54:01;;;;;;;18.87;17.87;;;11.70;99.90;;;;;;5009305;28;20487;-74
2021/04/10 07:56:52;;;;;;;17.40;16.50;;;12.00;99.90;;;;;;5008409;28;20459;-75
2021/04/10 07:59:19;;;;;;;17.63;16.73;;;12.10;99.90;;;;;;5015337;28;20511;-73
2021/04/10 08:01:45;;;;;;;19.50;18.40;;;12.30;99.90;;;;;;5013915;28;20488;-73
2021/04/10 08:04:16;;;;;;;17.90;17.00;;;12.30;99.90;;;;;;5010968;28;21074;-73
2021/04/10 08:06:56;;;;;;;18.30;17.30;;;12.40;99.90;;;;;;5019865;28;20482;-72
2021/04/10 08:09:33;;;;;;;20.30;19.20;;;12.50;99.90;;;;;;5017121;28;20855;-74
2021/04/10 08:12:01;;;;;;;19.90;18.80;;;12.40;99.90;;;;;;5013577;28;20468;-73
2021/04/10 08:14:40;;;;;;;21.70;20.43;;;12.30;99.90;;;;;;5008813;28;20991;-73
2021/04/10 08:17:07;;;;;;;18.37;17.37;;;12.20;99.90;;;;;;5010778;28;20464;-73
2021/04/10 08:19:35;;;;;;;17.87;16.97;;;12.30;99.90;;;;;;5016207;28;20457;-72
2021/04/10 08:22:02;;;;;;;18.57;17.57;;;12.30;99.90;;;;;;5008418;28;20484;-73
2021/04/10 08:24:31;;;;;;;18.40;17.40;;;12.20;99.90;;;;;;5009415;28;21169;-73
2021/04/10 08:26:59;;;;;;;19.30;18.20;;;12.20;99.90;;;;;;5011817;28;20473;-73
2021/04/10 08:29:25;;;;;;;19.10;18.07;;;11.90;99.90;;;;;;5016268;28;20519;-73
2021/04/10 08:31:53;;;;;;;19.10;18.10;;;12.00;99.90;;;;;;5012442;28;20872;-73
2021/04/10 08:34:20;;;;;;;29.33;26.27;;;12.20;99.90;;;;;;5013330;28;20482;-73
2021/04/10 08:36:51;;;;;;;41.10;37.20;;;12.30;99.90;;;;;;5009927;28;20469;-73
2021/04/10 08:39:20;;;;;;;42.50;38.27;;;12.30;99.90;;;;;;5002663;28;20462;-73
2021/04/10 08:41:48;;;;;;;47.23;38.10;;;12.30;99.90;;;;;;5016225;28;21030;-73
2021/04/10 08:44:21;;;;;;;43.20;38.97;;;12.30;99.90;;;;;;5015051;28;20487;-72
2021/04/10 08:46:48;;;;;;;44.00;39.30;;;12.40;99.90;;;;;;5012012;28;20495;-73
2021/04/10 08:49:18;;;;;;;44.13;39.70;;;12.20;99.90;;;;;;5017560;28;20476;-74
2021/04/10 08:51:47;;;;;;;46.23;41.60;;;12.40;99.90;;;;;;5013516;28;20465;-73
2021/04/10 08:54:14;;;;;;;44.30;40.10;;;12.50;99.90;;;;;;5011359;28;20464;-73
2021/04/10 08:56:41;;;;;;;49.87;40.33;;;12.50;99.90;;;;;;5012850;28;20460;-75
2021/04/10 08:59:12;;;;;;;48.23;41.30;;;12.70;99.90;;;;;;5014916;28;20468;-74
2021/04/10 09:01:41;;;;;;;44.90;40.20;;;12.70;99.90;;;;;;5014131;28;20580;-75
2021/04/10 09:04:08;;;;;;;43.03;39.13;;;12.80;99.90;;;;;;5014292;28;20923;-73
2021/04/10 09:06:49;;;;;;;50.40;42.73;;;13.00;99.90;;;;;;5006080;28;20859;-73
2021/04/10 09:09:29;;;;;;;44.83;40.53;;;13.20;99.90;;;;;;5005356;28;20995;-73
2021/04/10 09:12:21;;;;;;;49.40;40.73;;;13.20;99.90;;;;;;5008054;28;20569;-72
2021/04/10 09:14:49;;;;;;;47.20;42.30;;;13.10;99.90;;;;;;5011032;28;20465;-73
2021/04/10 09:17:16;;;;;;;47.83;43.00;;;13.10;99.90;;;;;;5014083;28;20465;-73
2021/04/10 09:19:43;;;;;;;53.80;44.13;;;13.10;99.90;;;;;;5015414;28;20687;-72
2021/04/10 09:22:18;;;;;;;48.77;43.80;;;13.20;99.90;;;;;;5012646;28;20499;-73
2021/04/10 09:24:46;;;;;;;45.33;41.07;;;13.30;99.90;;;;;;5009419;28;20460;-72
2021/04/10 09:27:24;;;;;;;47.17;42.40;;;13.40;99.90;;;;;;5007018;28;20522;-75
2021/04/10 09:29:54;;;;;;;44.40;40.10;;;13.00;99.90;;;;;;5003071;28;21098;-72
2021/04/10 09:32:33;;;;;;;42.63;38.67;;;12.70;99.90;;;;;;5007370;28;20488;-74
2021/04/10 09:35:00;;;;;;;44.60;40.30;;;12.80;99.90;;;;;;5009733;28;20986;-72
2021/04/10 09:37:49;;;;;;;46.47;41.97;;;12.70;99.90;;;;;;5008706;28;20556;-71
2021/04/10 09:40:19;;;;;;;48.07;43.37;;;12.30;99.90;;;;;;5008586;28;20495;-72
2021/04/10 09:42:46;;;;;;;49.80;44.60;;;12.30;99.90;;;;;;5005242;28;21042;-73
2021/04/10 09:45:15;;;;;;;46.97;42.57;;;12.20;99.90;;;;;;5007916;28;20513;-74
2021/04/10 09:48:21;;;;;;;48.03;43.43;;;12.30;99.90;;;;;;5018945;28;20449;-72
2021/04/10 09:51:07;;;;;;;52.33;47.13;;;12.40;99.90;;;;;;5007490;28;20504;-73
2021/04/10 09:53:35;;;;;;;49.33;44.60;;;12.50;99.90;;;;;;5023061;28;20547;-73
2021/04/10 09:56:05;;;;;;;50.53;45.60;;;12.50;99.90;;;;;;5017011;28;20463;-72
2021/04/10 09:58:38;;;;;;;54.37;48.53;;;12.40;99.90;;;;;;5013501;28;20452;-72
2021/04/10 10:01:07;;;;;;;55.77;49.93;;;12.30;99.90;;;;;;5013704;28;21018;-72
2021/04/10 10:03:34;;;;;;;57.60;51.83;;;12.50;99.90;;;;;;5014342;28;20460;-73
2021/04/10 10:06:00;;;;;;;58.80;52.70;;;12.30;99.90;;;;;;5018326;28;20472;-73
2021/04/10 10:08:31;;;;;;;58.63;52.47;;;12.30;99.90;;;;;;5016891;28;20981;-74
2021/04/10 10:11:05;;;;;;;60.73;54.37;;;12.10;99.90;;;;;;5017582;28;21061;-74
2021/04/10 10:13:33;;;;;;;59.43;53.37;;;12.10;99.90;;;;;;5017398;28;20522;-73
2021/04/10 10:16:00;;;;;;;65.77;54.43;;;12.10;99.90;;;;;;5012587;28;20568;-72
2021/04/10 10:18:28;;;;;;;62.80;55.90;;;12.10;99.90;;;;;;5014286;28;20470;-73
2021/04/10 10:20:59;;;;;;;61.53;55.13;;;12.00;99.90;;;;;;5009066;28;20472;-71
2021/04/10 10:23:27;;;;;;;57.53;51.53;;;11.70;99.90;;;;;;5011032;28;20465;-73
2021/04/10 10:25:54;;;;;;;62.97;56.03;;;11.60;99.90;;;;;;5017720;28;20822;-72
2021/04/10 10:28:22;;;;;;;61.70;55.10;;;11.50;99.90;;;;;;5015932;28;20456;-74
2021/04/10 10:30:49;;;;;;;61.90;55.10;;;11.60;99.90;;;;;;5012909;28;20489;-73
2021/04/10 10:33:16;;;;;;;61.57;54.87;;;11.70;99.90;;;;;;5018073;28;20975;-74
2021/04/10 10:35:52;;;;;;;60.43;53.70;;;11.60;99.90;;;;;;5014648;28;20491;-73
2021/04/10 10:38:18;;;;;;;58.93;52.53;;;11.50;99.90;;;;;;5017675;28;21042;-73
2021/04/10 10:40:47;;;;;;;58.80;52.63;;;11.60;99.90;;;;;;5014068;28;20492;-76
2021/04/10 10:43:14;;;;;;;60.23;53.97;;;11.70;99.90;;;;;;5014272;28;20503;-72
2021/04/10 10:45:44;;;;;;;64.30;54.37;;;11.70;99.90;;;;;;5014960;28;20971;-73
2021/04/10 10:48:21;;;;;;;61.17;54.77;;;11.50;99.90;;;;;;5018539;28;20491;-73
2021/04/10 10:50:50;;;;;;;60.87;54.40;;;11.70;99.90;;;;;;5011497;28;20981;-76
2021/04/10 10:53:17;;;;;;;61.07;54.80;;;11.50;99.90;;;;;;5015137;28;20480;-73
2021/04/10 10:56:06;;;;;;;66.33;54.63;;;11.40;99.90;;;;;;5016830;28;20803;-76
2021/04/10 10:58:45;;;;;;;59.83;53.20;;;11.40;99.90;;;;;;5012905;28;20538;-73
2021/04/10 11:01:17;;;;;;;60.27;53.87;;;11.40;99.90;;;;;;5016406;28;20475;-73
2021/04/10 11:03:46;;;;;;;58.97;52.97;;;11.20;99.90;;;;;;5020614;28;20464;-73
2021/04/10 11:06:17;;;;;;;59.60;53.07;;;11.30;99.90;;;;;;5010319;28;21006;-74
2021/04/10 11:08:44;;;;;;;64.73;55.23;;;11.20;99.90;;;;;;5020079;28;20463;-73
2021/04/10 11:11:12;;;;;;;63.23;56.43;;;11.10;99.90;;;;;;5016202;28;20568;-74
2021/04/10 11:13:45;;;;;;;67.20;57.30;;;11.10;99.90;;;;;;5015002;28;20455;-74
2021/04/10 11:16:12;;;;;;;70.90;58.53;;;11.30;99.90;;;;;;5007777;28;20471;-74
2021/04/10 11:18:40;;;;;;;76.37;63.00;;;11.20;99.90;;;;;;5023072;28;20456;-73
2021/04/10 11:21:24;;;;;;;87.43;61.37;;;11.30;99.90;;;;;;5005675;28;20518;-74
2021/04/10 11:24:09;;;;;;;66.70;57.30;;;11.50;99.90;;;;;;5019755;28;20468;-74
2021/04/10 11:26:52;;;;;;;68.30;59.00;;;11.70;99.90;;;;;;5015725;28;20468;-74
2021/04/10 11:29:33;;;;;;;69.10;59.47;;;11.70;99.90;;;;;;5013222;28;21307;-74
2021/04/10 11:32:24;;;;;;;64.97;58.00;;;11.90;99.90;;;;;;5008590;28;20482;-74
2021/04/10 11:35:14;;;;;;;62.73;55.77;;;12.10;99.90;;;;;;5015206;28;20871;-73
2021/04/10 11:37:44;;;;;;;61.03;53.40;;;11.80;99.90;;;;;;5007963;28;20552;-74
2021/04/10 11:40:20;;;;;;;62.80;54.17;;;11.50;99.90;;;;;;5010749;28;20480;-74
2021/04/10 11:42:48;;;;;;;66.43;55.37;;;11.70;99.90;;;;;;5010028;28;20857;-74
2021/04/10 11:45:27;;;;;;;67.90;57.83;;;11.80;99.90;;;;;;5008049;28;20465;-74
2021/04/10 11:48:06;;;;;;;66.70;58.57;;;11.70;99.90;;;;;;5006561;28;20513;-73
2021/04/10 11:50:44;;;;;;;67.77;59.27;;;11.90;99.90;;;;;;5008325;28;20552;-74
2021/04/10 11:53:26;;;;;;;78.20;59.43;;;11.90;99.90;;;;;;5014063;28;20456;-74
2021/04/10 11:55:54;;;;;;;70.57;59.03;;;12.00;99.90;;;;;;5018076;28;20460;-75
2021/04/10 11:58:32;;;;;;;68.80;56.27;;;12.20;99.90;;;;;;5014300;28;20942;-76
2021/04/10 12:01:07;;;;;;;69.87;56.90;;;12.20;99.90;;;;;;5020159;28;20460;-74
2021/04/10 12:03:34;;;;;;;67.13;56.30;;;12.30;99.90;;;;;;5019146;28;20472;-74
2021/04/10 12:06:01;;;;;;;69.93;59.67;;;12.30;99.90;;;;;;5015120;28;20503;-74
2021/04/10 12:08:28;;;;;;;64.90;55.70;;;12.30;99.90;;;;;;5015326;28;20496;-75
2021/04/10 12:10:56;;;;;;;64.00;53.40;;;12.50;99.90;;;;;;5017440;28;20940;-74
2021/04/10 12:13:25;;;;;;;60.63;53.03;;;12.40;99.90;;;;;;5017481;28;20829;-74
2021/04/10 12:15:53;;;;;;;59.37;49.87;;;12.10;99.90;;;;;;5013119;28;21001;-76
2021/04/10 12:18:21;;;;;;;54.73;48.83;;;12.10;99.90;;;;;;5013911;28;20465;-74
2021/04/10 12:20:48;;;;;;;55.53;49.47;;;12.30;99.90;;;;;;5017052;28;20825;-74
2021/04/10 12:23:16;;;;;;;56.20;48.20;;;12.20;99.90;;;;;;5007526;28;20552;-74
2021/04/10 12:25:43;;;;;;;55.43;49.63;;;12.40;99.90;;;;;;5016642;28;20461;-74
2021/04/10 12:28:10;;;;;;;53.13;47.33;;;12.30;99.90;;;;;;5008910;28;20472;-74
2021/04/10 12:30:37;;;;;;;54.27;48.67;;;12.50;99.90;;;;;;5016329;28;20476;-74
2021/04/10 12:33:03;;;;;;;54.43;47.83;;;12.50;99.90;;;;;;5013192;28;20496;-75
2021/04/10 12:35:30;;;;;;;51.60;46.40;;;12.40;99.90;;;;;;5016878;28;20515;-74
2021/04/10 12:37:56;;;;;;;51.13;45.27;;;12.40;99.90;;;;;;5019155;28;20456;-74
2021/04/10 12:40:24;;;;;;;48.93;43.90;;;11.90;99.90;;;;;;5014668;28;20468;-76
2021/04/10 12:42:51;;;;;;;52.70;46.87;;;11.90;99.90;;;;;;5019519;28;20542;-74
2021/04/10 12:45:18;;;;;;;51.23;45.00;;;11.90;99.90;;;;;;5013405;28;20473;-74